sensor_id;sensor_type;location;lat;lon;timestamp;P1;durP1;ratioP1;P2;durP2;ratioP2
19747;SDS011;10032;51.386;12.516;2023-11-21T00:01:44;1.60;;;1.40;;
19747;SDS011;10032;51.386;12.516;2023-11-21T00:04:09;1.63;;;1.50;;
19747;SDS011;10032;51.386;12.516;2023-11-21T00:06:35;3.27;;;1.57;;
19747;SDS011;10032;51.386;12.516;2023-11-21T00:09:00;1.80;;;1.57;;
19747;SDS011;10032;51.386;12.516;2023-11-21T00:11:26;2.13;;;1.93;;
19747;SDS011;10032;51.386;12.516;2023-11-21T00:13:51;1.40;;;1.00;;
19747;SDS011;10032;51.386;12.516;2023-11-21T00:16:17;3.20;;;1.60;;
19747;SDS011;10032;51.386;12.516;2023-11-21T00:18:42;1.93;;;1.60;;
19747;SDS011;10032;51.386;12.516;2023-11-21T00:21:08;1.63;;;1.20;;
19747;SDS011;10032;51.386;12.516;2023-11-21T00:23:34;1.60;;;1.50;;
19747;SDS011;10032;51.386;12.516;2023-11-21T00:26:00;1.53;;;1.43;;
19747;SDS011;10032;51.386;12.516;2023-11-21T00:28:26;1.70;;;1.60;;
19747;SDS011;10032;51.386;12.516;2023-11-21T00:30:51;2.00;;;1.37;;
19747;SDS011;10032;51.386;12.516;2023-11-21T00:33:16;1.40;;;1.30;;
19747;SDS011;10032;51.386;12.516;2023-11-21T00:35:42;1.77;;;1.67;;
19747;SDS011;10032;51.386;12.516;2023-11-21T00:38:07;1.73;;;1.63;;
19747;SDS011;10032;51.386;12.516;2023-11-21T00:40:33;1.67;;;1.57;;
19747;SDS011;10032;51.386;12.516;2023-11-21T00:42:59;2.30;;;2.10;;
19747;SDS011;10032;51.386;12.516;2023-11-21T00:45:24;1.20;;;1.17;;
19747;SDS011;10032;51.386;12.516;2023-11-21T00:47:50;2.37;;;1.50;;
19747;SDS011;10032;51.386;12.516;2023-11-21T00:50:16;1.77;;;1.50;;
19747;SDS011;10032;51.386;12.516;2023-11-21T00:52:41;1.53;;;1.43;;
19747;SDS011;10032;51.386;12.516;2023-11-21T00:55:07;2.13;;;1.70;;
19747;SDS011;10032;51.386;12.516;2023-11-21T00:57:33;2.60;;;2.10;;
19747;SDS011;10032;51.386;12.516;2023-11-21T00:59:59;1.97;;;1.60;;
19747;SDS011;10032;51.386;12.516;2023-11-21T01:02:25;1.47;;;1.37;;
19747;SDS011;10032;51.386;12.516;2023-11-21T01:04:50;1.87;;;1.60;;
19747;SDS011;10032;51.386;12.516;2023-11-21T01:07:16;2.63;;;1.83;;
19747;SDS011;10032;51.386;12.516;2023-11-21T01:09:42;2.23;;;1.90;;
19747;SDS011;10032;51.386;12.516;2023-11-21T01:12:09;1.90;;;1.70;;
19747;SDS011;10032;51.386;12.516;2023-11-21T01:14:34;1.87;;;1.60;;
19747;SDS011;10032;51.386;12.516;2023-11-21T01:17:00;2.30;;;2.00;;
19747;SDS011;10032;51.386;12.516;2023-11-21T01:19:25;3.57;;;2.87;;
19747;SDS011;10032;51.386;12.516;2023-11-21T01:21:51;1.83;;;1.63;;
19747;SDS011;10032;51.386;12.516;2023-11-21T01:24:18;2.47;;;1.97;;
19747;SDS011;10032;51.386;12.516;2023-11-21T01:26:43;2.93;;;1.70;;
19747;SDS011;10032;51.386;12.516;2023-11-21T01:29:10;2.93;;;1.77;;
19747;SDS011;10032;51.386;12.516;2023-11-21T01:31:35;2.63;;;2.03;;
19747;SDS011;10032;51.386;12.516;2023-11-21T01:34:01;1.97;;;1.73;;
19747;SDS011;10032;51.386;12.516;2023-11-21T01:36:33;2.37;;;1.77;;
19747;SDS011;10032;51.386;12.516;2023-11-21T01:38:58;2.00;;;1.80;;
19747;SDS011;10032;51.386;12.516;2023-11-21T01:41:27;2.57;;;1.67;;
19747;SDS011;10032;51.386;12.516;2023-11-21T01:43:53;1.87;;;1.77;;
19747;SDS011;10032;51.386;12.516;2023-11-21T01:46:20;3.73;;;2.33;;
19747;SDS011;10032;51.386;12.516;2023-11-21T01:48:46;2.80;;;2.23;;
19747;SDS011;10032;51.386;12.516;2023-11-21T01:51:13;2.93;;;2.27;;
19747;SDS011;10032;51.386;12.516;2023-11-21T01:53:38;2.57;;;1.83;;
19747;SDS011;10032;51.386;12.516;2023-11-21T01:56:04;2.90;;;1.97;;
19747;SDS011;10032;51.386;12.516;2023-11-21T01:58:33;2.23;;;1.90;;
19747;SDS011;10032;51.386;12.516;2023-11-21T02:00:58;3.17;;;1.97;;
19747;SDS011;10032;51.386;12.516;2023-11-21T02:03:24;2.20;;;1.90;;
19747;SDS011;10032;51.386;12.516;2023-11-21T02:05:51;2.30;;;1.93;;
19747;SDS011;10032;51.386;12.516;2023-11-21T02:08:18;2.20;;;1.93;;
19747;SDS011;10032;51.386;12.516;2023-11-21T02:10:44;2.47;;;2.20;;
19747;SDS011;10032;51.386;12.516;2023-11-21T02:13:10;2.77;;;2.50;;
19747;SDS011;10032;51.386;12.516;2023-11-21T02:15:36;2.90;;;2.40;;
19747;SDS011;10032;51.386;12.516;2023-11-21T02:18:03;2.60;;;1.90;;
19747;SDS011;10032;51.386;12.516;2023-11-21T02:20:31;2.40;;;2.03;;
19747;SDS011;10032;51.386;12.516;2023-11-21T02:22:59;2.57;;;1.93;;
19747;SDS011;10032;51.386;12.516;2023-11-21T02:25:29;2.40;;;2.13;;
19747;SDS011;10032;51.386;12.516;2023-11-21T02:28:01;2.07;;;1.87;;
19747;SDS011;10032;51.386;12.516;2023-11-21T02:30:28;2.23;;;2.03;;
19747;SDS011;10032;51.386;12.516;2023-11-21T02:32:54;3.13;;;2.30;;
19747;SDS011;10032;51.386;12.516;2023-11-21T02:35:23;2.13;;;1.77;;
19747;SDS011;10032;51.386;12.516;2023-11-21T02:37:48;1.93;;;1.73;;
19747;SDS011;10032;51.386;12.516;2023-11-21T02:40:15;2.30;;;1.90;;
19747;SDS011;10032;51.386;12.516;2023-11-21T02:42:45;2.63;;;2.40;;
19747;SDS011;10032;51.386;12.516;2023-11-21T02:45:12;1.60;;;1.50;;
19747;SDS011;10032;51.386;12.516;2023-11-21T02:47:41;2.10;;;1.80;;
19747;SDS011;10032;51.386;12.516;2023-11-21T02:50:08;3.20;;;1.90;;
19747;SDS011;10032;51.386;12.516;2023-11-21T02:52:34;2.53;;;1.80;;
19747;SDS011;10032;51.386;12.516;2023-11-21T02:55:01;1.73;;;1.50;;
19747;SDS011;10032;51.386;12.516;2023-11-21T02:57:27;3.07;;;2.77;;
19747;SDS011;10032;51.386;12.516;2023-11-21T02:59:52;2.20;;;1.60;;
19747;SDS011;10032;51.386;12.516;2023-11-21T03:02:17;3.33;;;1.63;;
19747;SDS011;10032;51.386;12.516;2023-11-21T03:04:43;2.47;;;1.83;;
19747;SDS011;10032;51.386;12.516;2023-11-21T03:07:08;1.70;;;1.47;;
19747;SDS011;10032;51.386;12.516;2023-11-21T03:09:34;2.53;;;1.40;;
19747;SDS011;10032;51.386;12.516;2023-11-21T03:12:00;1.83;;;1.47;;
19747;SDS011;10032;51.386;12.516;2023-11-21T03:14:26;1.77;;;1.57;;
19747;SDS011;10032;51.386;12.516;2023-11-21T03:16:51;1.53;;;1.43;;
19747;SDS011;10032;51.386;12.516;2023-11-21T03:19:16;1.90;;;1.63;;
19747;SDS011;10032;51.386;12.516;2023-11-21T03:21:42;2.20;;;1.47;;
19747;SDS011;10032;51.386;12.516;2023-11-21T03:24:07;2.03;;;1.93;;
19747;SDS011;10032;51.386;12.516;2023-11-21T03:26:33;2.00;;;1.80;;
19747;SDS011;10032;51.386;12.516;2023-11-21T03:28:58;2.30;;;1.90;;
19747;SDS011;10032;51.386;12.516;2023-11-21T03:31:24;2.33;;;1.73;;
19747;SDS011;10032;51.386;12.516;2023-11-21T03:33:49;2.80;;;1.50;;
19747;SDS011;10032;51.386;12.516;2023-11-21T03:36:14;1.70;;;1.60;;
19747;SDS011;10032;51.386;12.516;2023-11-21T03:38:40;3.17;;;2.13;;
19747;SDS011;10032;51.386;12.516;2023-11-21T03:41:06;1.67;;;1.57;;
19747;SDS011;10032;51.386;12.516;2023-11-21T03:43:35;2.77;;;2.20;;
19747;SDS011;10032;51.386;12.516;2023-11-21T03:46:01;1.83;;;1.30;;
19747;SDS011;10032;51.386;12.516;2023-11-21T03:48:26;2.03;;;1.90;;
19747;SDS011;10032;51.386;12.516;2023-11-21T03:50:52;2.30;;;1.67;;
19747;SDS011;10032;51.386;12.516;2023-11-21T03:53:17;2.13;;;1.93;;
19747;SDS011;10032;51.386;12.516;2023-11-21T03:55:42;2.03;;;1.40;;
19747;SDS011;10032;51.386;12.516;2023-11-21T03:58:08;1.43;;;1.33;;
19747;SDS011;10032;51.386;12.516;2023-11-21T04:00:33;2.03;;;1.60;;
19747;SDS011;10032;51.386;12.516;2023-11-21T04:02:59;1.70;;;1.60;;
19747;SDS011;10032;51.386;12.516;2023-11-21T04:05:24;2.93;;;1.57;;
19747;SDS011;10032;51.386;12.516;2023-11-21T04:07:50;1.40;;;1.30;;
19747;SDS011;10032;51.386;12.516;2023-11-21T04:10:16;3.10;;;1.47;;
19747;SDS011;10032;51.386;12.516;2023-11-21T04:12:41;1.40;;;1.30;;
19747;SDS011;10032;51.386;12.516;2023-11-21T04:15:07;1.57;;;1.47;;
19747;SDS011;10032;51.386;12.516;2023-11-21T04:17:34;1.50;;;1.40;;
19747;SDS011;10032;51.386;12.516;2023-11-21T04:19:59;1.80;;;1.30;;
19747;SDS011;10032;51.386;12.516;2023-11-21T04:22:25;1.93;;;1.80;;
19747;SDS011;10032;51.386;12.516;2023-11-21T04:24:50;2.10;;;1.57;;
19747;SDS011;10032;51.386;12.516;2023-11-21T04:27:16;1.77;;;1.67;;
19747;SDS011;10032;51.386;12.516;2023-11-21T04:29:43;4.90;;;2.43;;
19747;SDS011;10032;51.386;12.516;2023-11-21T04:32:09;1.63;;;1.50;;
19747;SDS011;10032;51.386;12.516;2023-11-21T04:34:34;2.10;;;1.60;;
19747;SDS011;10032;51.386;12.516;2023-11-21T04:37:00;2.30;;;1.80;;
19747;SDS011;10032;51.386;12.516;2023-11-21T04:39:26;2.43;;;1.77;;
19747;SDS011;10032;51.386;12.516;2023-11-21T04:41:51;2.50;;;1.87;;
19747;SDS011;10032;51.386;12.516;2023-11-21T04:44:17;2.90;;;2.27;;
19747;SDS011;10032;51.386;12.516;2023-11-21T04:46:42;4.33;;;1.63;;
19747;SDS011;10032;51.386;12.516;2023-11-21T04:49:08;1.73;;;1.63;;
19747;SDS011;10032;51.386;12.516;2023-11-21T04:51:33;2.17;;;1.83;;
19747;SDS011;10032;51.386;12.516;2023-11-21T04:53:59;2.47;;;2.23;;
19747;SDS011;10032;51.386;12.516;2023-11-21T04:56:24;2.20;;;1.70;;
19747;SDS011;10032;51.386;12.516;2023-11-21T04:58:50;3.97;;;1.90;;
19747;SDS011;10032;51.386;12.516;2023-11-21T05:01:15;2.20;;;2.00;;
19747;SDS011;10032;51.386;12.516;2023-11-21T05:03:41;2.87;;;2.20;;
19747;SDS011;10032;51.386;12.516;2023-11-21T05:06:06;1.90;;;1.70;;
19747;SDS011;10032;51.386;12.516;2023-11-21T05:08:34;1.63;;;1.50;;
19747;SDS011;10032;51.386;12.516;2023-11-21T05:11:00;3.23;;;2.00;;
19747;SDS011;10032;51.386;12.516;2023-11-21T05:13:25;3.77;;;3.00;;
19747;SDS011;10032;51.386;12.516;2023-11-21T05:15:53;3.63;;;1.80;;
19747;SDS011;10032;51.386;12.516;2023-11-21T05:18:24;2.97;;;1.97;;
19747;SDS011;10032;51.386;12.516;2023-11-21T05:20:54;3.90;;;2.97;;
19747;SDS011;10032;51.386;12.516;2023-11-21T05:23:20;3.43;;;2.43;;
19747;SDS011;10032;51.386;12.516;2023-11-21T05:25:45;3.07;;;2.20;;
19747;SDS011;10032;51.386;12.516;2023-11-21T05:28:11;3.20;;;2.37;;
19747;SDS011;10032;51.386;12.516;2023-11-21T05:30:37;2.97;;;2.33;;
19747;SDS011;10032;51.386;12.516;2023-11-21T05:33:04;2.93;;;2.60;;
19747;SDS011;10032;51.386;12.516;2023-11-21T05:35:30;2.23;;;2.00;;
19747;SDS011;10032;51.386;12.516;2023-11-21T05:37:56;2.77;;;1.90;;
19747;SDS011;10032;51.386;12.516;2023-11-21T05:40:21;2.10;;;1.83;;
19747;SDS011;10032;51.386;12.516;2023-11-21T05:42:47;4.67;;;3.00;;
19747;SDS011;10032;51.386;12.516;2023-11-21T05:45:13;3.17;;;2.43;;
19747;SDS011;10032;51.386;12.516;2023-11-21T05:47:43;2.07;;;1.87;;
19747;SDS011;10032;51.386;12.516;2023-11-21T05:50:11;2.33;;;2.13;;
19747;SDS011;10032;51.386;12.516;2023-11-21T05:52:39;2.30;;;1.60;;
19747;SDS011;10032;51.386;12.516;2023-11-21T05:55:06;1.93;;;1.83;;
19747;SDS011;10032;51.386;12.516;2023-11-21T05:57:35;2.83;;;2.37;;
19747;SDS011;10032;51.386;12.516;2023-11-21T06:02:40;3.07;;;2.10;;
19747;SDS011;10032;51.386;12.516;2023-11-21T06:05:07;3.97;;;2.63;;
19747;SDS011;10032;51.386;12.516;2023-11-21T06:07:33;3.17;;;2.40;;
19747;SDS011;10032;51.386;12.516;2023-11-21T06:10:00;4.70;;;2.40;;
19747;SDS011;10032;51.386;12.516;2023-11-21T06:12:27;2.03;;;1.77;;
19747;SDS011;10032;51.386;12.516;2023-11-21T06:14:53;3.63;;;3.00;;
19747;SDS011;10032;51.386;12.516;2023-11-21T06:17:18;3.50;;;2.60;;
19747;SDS011;10032;51.386;12.516;2023-11-21T06:19:44;3.47;;;2.23;;
19747;SDS011;10032;51.386;12.516;2023-11-21T06:22:11;2.80;;;2.47;;
19747;SDS011;10032;51.386;12.516;2023-11-21T06:24:36;3.57;;;2.37;;
19747;SDS011;10032;51.386;12.516;2023-11-21T06:27:03;4.47;;;2.73;;
19747;SDS011;10032;51.386;12.516;2023-11-21T06:29:29;5.93;;;3.50;;
19747;SDS011;10032;51.386;12.516;2023-11-21T06:31:55;4.50;;;2.90;;
19747;SDS011;10032;51.386;12.516;2023-11-21T06:34:20;4.60;;;3.10;;
19747;SDS011;10032;51.386;12.516;2023-11-21T06:36:46;4.20;;;3.40;;
19747;SDS011;10032;51.386;12.516;2023-11-21T06:39:12;5.10;;;3.50;;
19747;SDS011;10032;51.386;12.516;2023-11-21T06:41:40;3.73;;;2.90;;
19747;SDS011;10032;51.386;12.516;2023-11-21T06:44:05;4.67;;;3.27;;
19747;SDS011;10032;51.386;12.516;2023-11-21T06:46:30;6.33;;;3.10;;
19747;SDS011;10032;51.386;12.516;2023-11-21T06:48:56;6.37;;;2.50;;
19747;SDS011;10032;51.386;12.516;2023-11-21T06:51:21;4.20;;;2.83;;
19747;SDS011;10032;51.386;12.516;2023-11-21T06:53:46;4.70;;;2.97;;
19747;SDS011;10032;51.386;12.516;2023-11-21T06:56:18;4.70;;;3.20;;
19747;SDS011;10032;51.386;12.516;2023-11-21T06:58:46;2.80;;;2.60;;
19747;SDS011;10032;51.386;12.516;2023-11-21T07:01:12;4.00;;;2.87;;
19747;SDS011;10032;51.386;12.516;2023-11-21T07:03:39;5.90;;;4.13;;
19747;SDS011;10032;51.386;12.516;2023-11-21T07:06:04;4.50;;;3.20;;
19747;SDS011;10032;51.386;12.516;2023-11-21T07:08:30;6.47;;;3.33;;
19747;SDS011;10032;51.386;12.516;2023-11-21T07:10:56;6.87;;;3.70;;
19747;SDS011;10032;51.386;12.516;2023-11-21T07:13:21;6.17;;;3.70;;
19747;SDS011;10032;51.386;12.516;2023-11-21T07:15:47;5.33;;;3.40;;
19747;SDS011;10032;51.386;12.516;2023-11-21T07:18:13;5.47;;;3.67;;
19747;SDS011;10032;51.386;12.516;2023-11-21T07:20:38;4.63;;;3.77;;
19747;SDS011;10032;51.386;12.516;2023-11-21T07:23:04;6.00;;;4.63;;
19747;SDS011;10032;51.386;12.516;2023-11-21T07:25:29;6.20;;;3.80;;
19747;SDS011;10032;51.386;12.516;2023-11-21T07:27:54;5.40;;;3.93;;
19747;SDS011;10032;51.386;12.516;2023-11-21T07:30:20;6.13;;;4.53;;
19747;SDS011;10032;51.386;12.516;2023-11-21T07:32:47;6.37;;;4.10;;
19747;SDS011;10032;51.386;12.516;2023-11-21T07:35:13;7.20;;;4.20;;
19747;SDS011;10032;51.386;12.516;2023-11-21T07:37:38;7.77;;;4.50;;
19747;SDS011;10032;51.386;12.516;2023-11-21T07:40:04;6.10;;;4.17;;
19747;SDS011;10032;51.386;12.516;2023-11-21T07:42:30;7.60;;;4.60;;
19747;SDS011;10032;51.386;12.516;2023-11-21T07:44:56;5.77;;;4.20;;
19747;SDS011;10032;51.386;12.516;2023-11-21T07:47:21;6.87;;;4.17;;
19747;SDS011;10032;51.386;12.516;2023-11-21T07:49:47;5.17;;;3.83;;
19747;SDS011;10032;51.386;12.516;2023-11-21T07:52:13;3.93;;;2.70;;
19747;SDS011;10032;51.386;12.516;2023-11-21T07:54:41;4.10;;;2.70;;
19747;SDS011;10032;51.386;12.516;2023-11-21T07:57:06;3.57;;;2.90;;
19747;SDS011;10032;51.386;12.516;2023-11-21T07:59:32;2.83;;;2.53;;
19747;SDS011;10032;51.386;12.516;2023-11-21T08:01:58;3.80;;;2.97;;
19747;SDS011;10032;51.386;12.516;2023-11-21T08:04:23;3.87;;;2.53;;
19747;SDS011;10032;51.386;12.516;2023-11-21T08:06:48;3.63;;;2.90;;
19747;SDS011;10032;51.386;12.516;2023-11-21T08:09:14;3.23;;;2.50;;
19747;SDS011;10032;51.386;12.516;2023-11-21T08:11:40;3.33;;;3.00;;
19747;SDS011;10032;51.386;12.516;2023-11-21T08:14:05;2.83;;;2.53;;
19747;SDS011;10032;51.386;12.516;2023-11-21T08:16:31;3.00;;;2.70;;
19747;SDS011;10032;51.386;12.516;2023-11-21T08:18:57;4.80;;;2.67;;
19747;SDS011;10032;51.386;12.516;2023-11-21T08:21:22;5.67;;;2.77;;
19747;SDS011;10032;51.386;12.516;2023-11-21T08:23:54;4.47;;;3.10;;
19747;SDS011;10032;51.386;12.516;2023-11-21T08:26:23;3.73;;;3.03;;
19747;SDS011;10032;51.386;12.516;2023-11-21T08:28:48;4.30;;;3.20;;
19747;SDS011;10032;51.386;12.516;2023-11-21T08:31:14;5.03;;;3.17;;
19747;SDS011;10032;51.386;12.516;2023-11-21T08:33:40;4.30;;;3.07;;
19747;SDS011;10032;51.386;12.516;2023-11-21T08:36:06;5.67;;;3.77;;
19747;SDS011;10032;51.386;12.516;2023-11-21T08:38:37;4.23;;;3.03;;
19747;SDS011;10032;51.386;12.516;2023-11-21T08:41:04;3.17;;;2.43;;
19747;SDS011;10032;51.386;12.516;2023-11-21T08:43:33;5.80;;;3.77;;
19747;SDS011;10032;51.386;12.516;2023-11-21T08:46:00;7.07;;;4.83;;
19747;SDS011;10032;51.386;12.516;2023-11-21T08:48:25;5.53;;;3.17;;
19747;SDS011;10032;51.386;12.516;2023-11-21T08:50:53;6.87;;;3.93;;
19747;SDS011;10032;51.386;12.516;2023-11-21T08:53:19;4.03;;;3.37;;
19747;SDS011;10032;51.386;12.516;2023-11-21T08:55:44;7.00;;;3.60;;
19747;SDS011;10032;51.386;12.516;2023-11-21T08:58:10;5.07;;;4.10;;
19747;SDS011;10032;51.386;12.516;2023-11-21T09:00:37;7.60;;;4.47;;
19747;SDS011;10032;51.386;12.516;2023-11-21T09:03:04;4.80;;;3.97;;
19747;SDS011;10032;51.386;12.516;2023-11-21T09:05:33;3.67;;;3.10;;
19747;SDS011;10032;51.386;12.516;2023-11-21T09:07:59;6.03;;;3.17;;
19747;SDS011;10032;51.386;12.516;2023-11-21T09:10:24;5.50;;;3.30;;
19747;SDS011;10032;51.386;12.516;2023-11-21T09:12:50;6.60;;;4.60;;
19747;SDS011;10032;51.386;12.516;2023-11-21T09:15:17;5.50;;;3.47;;
19747;SDS011;10032;51.386;12.516;2023-11-21T09:17:42;7.57;;;3.77;;
19747;SDS011;10032;51.386;12.516;2023-11-21T09:20:09;6.03;;;3.90;;
19747;SDS011;10032;51.386;12.516;2023-11-21T09:22:35;9.47;;;5.70;;
19747;SDS011;10032;51.386;12.516;2023-11-21T09:25:01;5.80;;;4.00;;
19747;SDS011;10032;51.386;12.516;2023-11-21T09:27:30;4.83;;;4.27;;
19747;SDS011;10032;51.386;12.516;2023-11-21T09:29:55;8.77;;;4.47;;
19747;SDS011;10032;51.386;12.516;2023-11-21T09:32:23;5.60;;;3.53;;
19747;SDS011;10032;51.386;12.516;2023-11-21T09:34:48;5.77;;;4.00;;
19747;SDS011;10032;51.386;12.516;2023-11-21T09:37:15;5.50;;;4.10;;
19747;SDS011;10032;51.386;12.516;2023-11-21T09:39:41;4.10;;;3.30;;
19747;SDS011;10032;51.386;12.516;2023-11-21T09:42:11;3.67;;;3.17;;
19747;SDS011;10032;51.386;12.516;2023-11-21T09:44:45;4.93;;;3.43;;
19747;SDS011;10032;51.386;12.516;2023-11-21T09:47:18;5.73;;;3.40;;
19747;SDS011;10032;51.386;12.516;2023-11-21T09:49:48;5.67;;;3.53;;
19747;SDS011;10032;51.386;12.516;2023-11-21T09:52:39;4.03;;;3.27;;
19747;SDS011;10032;51.386;12.516;2023-11-21T09:55:19;4.17;;;2.90;;
19747;SDS011;10032;51.386;12.516;2023-11-21T09:57:46;4.10;;;3.07;;
19747;SDS011;10032;51.386;12.516;2023-11-21T10:00:13;4.90;;;3.20;;
19747;SDS011;10032;51.386;12.516;2023-11-21T10:02:42;3.40;;;2.90;;
19747;SDS011;10032;51.386;12.516;2023-11-21T10:05:08;3.30;;;2.50;;
19747;SDS011;10032;51.386;12.516;2023-11-21T10:07:34;4.50;;;2.80;;
19747;SDS011;10032;51.386;12.516;2023-11-21T10:10:00;3.97;;;2.67;;
19747;SDS011;10032;51.386;12.516;2023-11-21T10:12:27;4.07;;;3.47;;
19747;SDS011;10032;51.386;12.516;2023-11-21T10:14:54;3.67;;;3.23;;
19747;SDS011;10032;51.386;12.516;2023-11-21T10:17:23;2.87;;;2.63;;
19747;SDS011;10032;51.386;12.516;2023-11-21T10:19:51;3.80;;;2.33;;
19747;SDS011;10032;51.386;12.516;2023-11-21T10:22:18;5.10;;;3.63;;
19747;SDS011;10032;51.386;12.516;2023-11-21T10:24:45;4.73;;;2.90;;
19747;SDS011;10032;51.386;12.516;2023-11-21T10:27:11;3.57;;;2.80;;
19747;SDS011;10032;51.386;12.516;2023-11-21T10:29:38;6.50;;;3.93;;
19747;SDS011;10032;51.386;12.516;2023-11-21T10:32:04;8.10;;;3.90;;
19747;SDS011;10032;51.386;12.516;2023-11-21T10:34:30;8.30;;;4.97;;
19747;SDS011;10032;51.386;12.516;2023-11-21T10:36:56;8.07;;;5.03;;
19747;SDS011;10032;51.386;12.516;2023-11-21T10:39:23;6.73;;;4.17;;
19747;SDS011;10032;51.386;12.516;2023-11-21T10:41:52;7.10;;;5.07;;
19747;SDS011;10032;51.386;12.516;2023-11-21T10:44:19;8.07;;;5.40;;
19747;SDS011;10032;51.386;12.516;2023-11-21T10:46:49;6.77;;;4.90;;
19747;SDS011;10032;51.386;12.516;2023-11-21T10:49:17;8.47;;;5.33;;
19747;SDS011;10032;51.386;12.516;2023-11-21T10:51:44;8.23;;;5.40;;
19747;SDS011;10032;51.386;12.516;2023-11-21T10:54:10;9.17;;;5.13;;
19747;SDS011;10032;51.386;12.516;2023-11-21T10:56:37;8.80;;;4.73;;
19747;SDS011;10032;51.386;12.516;2023-11-21T10:59:08;7.57;;;4.73;;
19747;SDS011;10032;51.386;12.516;2023-11-21T11:01:39;8.57;;;5.07;;
19747;SDS011;10032;51.386;12.516;2023-11-21T11:04:15;8.37;;;4.37;;
19747;SDS011;10032;51.386;12.516;2023-11-21T11:06:43;8.40;;;5.57;;
19747;SDS011;10032;51.386;12.516;2023-11-21T11:09:13;8.33;;;5.27;;
19747;SDS011;10032;51.386;12.516;2023-11-21T11:11:41;8.13;;;5.27;;
19747;SDS011;10032;51.386;12.516;2023-11-21T11:14:10;7.67;;;4.87;;
19747;SDS011;10032;51.386;12.516;2023-11-21T11:16:37;7.97;;;4.43;;
19747;SDS011;10032;51.386;12.516;2023-11-21T11:19:09;8.97;;;5.87;;
19747;SDS011;10032;51.386;12.516;2023-11-21T11:21:50;6.77;;;3.87;;
19747;SDS011;10032;51.386;12.516;2023-11-21T11:27:22;6.20;;;4.80;;
19747;SDS011;10032;51.386;12.516;2023-11-21T11:35:04;5.13;;;3.50;;
19747;SDS011;10032;51.386;12.516;2023-11-21T11:37:43;6.83;;;4.20;;
19747;SDS011;10032;51.386;12.516;2023-11-21T11:40:10;6.80;;;4.33;;
19747;SDS011;10032;51.386;12.516;2023-11-21T11:42:36;5.67;;;3.53;;
19747;SDS011;10032;51.386;12.516;2023-11-21T11:45:02;6.67;;;3.97;;
19747;SDS011;10032;51.386;12.516;2023-11-21T11:47:42;5.17;;;3.23;;
19747;SDS011;10032;51.386;12.516;2023-11-21T11:50:10;5.40;;;3.00;;
19747;SDS011;10032;51.386;12.516;2023-11-21T11:52:46;4.27;;;3.43;;
19747;SDS011;10032;51.386;12.516;2023-11-21T11:55:13;7.73;;;3.57;;
19747;SDS011;10032;51.386;12.516;2023-11-21T11:57:41;5.57;;;4.40;;
19747;SDS011;10032;51.386;12.516;2023-11-21T12:02:53;5.30;;;3.33;;
19747;SDS011;10032;51.386;12.516;2023-11-21T12:05:23;3.50;;;3.10;;
19747;SDS011;10032;51.386;12.516;2023-11-21T12:07:56;4.60;;;3.03;;
19747;SDS011;10032;51.386;12.516;2023-11-21T12:12:50;6.27;;;3.77;;
19747;SDS011;10032;51.386;12.516;2023-11-21T12:15:20;4.77;;;3.03;;
19747;SDS011;10032;51.386;12.516;2023-11-21T12:17:46;4.57;;;3.10;;
19747;SDS011;10032;51.386;12.516;2023-11-21T12:20:14;5.73;;;4.17;;
19747;SDS011;10032;51.386;12.516;2023-11-21T12:25:17;4.80;;;3.97;;
19747;SDS011;10032;51.386;12.516;2023-11-21T12:27:51;4.17;;;2.90;;
19747;SDS011;10032;51.386;12.516;2023-11-21T12:30:21;4.53;;;3.30;;
19747;SDS011;10032;51.386;12.516;2023-11-21T12:32:50;4.33;;;3.87;;
19747;SDS011;10032;51.386;12.516;2023-11-21T12:35:17;4.27;;;3.50;;
19747;SDS011;10032;51.386;12.516;2023-11-21T12:37:47;6.63;;;4.00;;
19747;SDS011;10032;51.386;12.516;2023-11-21T12:40:13;4.60;;;3.37;;
19747;SDS011;10032;51.386;12.516;2023-11-21T12:42:43;6.33;;;4.17;;
19747;SDS011;10032;51.386;12.516;2023-11-21T12:47:45;5.20;;;3.20;;
19747;SDS011;10032;51.386;12.516;2023-11-21T12:50:21;5.40;;;3.50;;
19747;SDS011;10032;51.386;12.516;2023-11-21T12:52:49;4.27;;;2.70;;
19747;SDS011;10032;51.386;12.516;2023-11-21T12:55:19;5.80;;;3.00;;
19747;SDS011;10032;51.386;12.516;2023-11-21T12:57:52;5.10;;;3.27;;
19747;SDS011;10032;51.386;12.516;2023-11-21T13:00:20;5.03;;;3.23;;
19747;SDS011;10032;51.386;12.516;2023-11-21T13:02:54;4.27;;;3.43;;
19747;SDS011;10032;51.386;12.516;2023-11-21T13:05:32;4.33;;;2.90;;
19747;SDS011;10032;51.386;12.516;2023-11-21T13:08:01;5.60;;;3.87;;
19747;SDS011;10032;51.386;12.516;2023-11-21T13:10:33;4.93;;;3.60;;
19747;SDS011;10032;51.386;12.516;2023-11-21T13:13:06;6.20;;;3.57;;
19747;SDS011;10032;51.386;12.516;2023-11-21T13:15:46;3.60;;;2.73;;
19747;SDS011;10032;51.386;12.516;2023-11-21T13:18:16;6.33;;;3.27;;
19747;SDS011;10032;51.386;12.516;2023-11-21T13:20:42;5.57;;;3.43;;
19747;SDS011;10032;51.386;12.516;2023-11-21T13:23:08;4.63;;;3.07;;
19747;SDS011;10032;51.386;12.516;2023-11-21T13:25:37;6.03;;;3.47;;
19747;SDS011;10032;51.386;12.516;2023-11-21T13:28:04;6.90;;;3.47;;
19747;SDS011;10032;51.386;12.516;2023-11-21T13:30:30;4.93;;;3.80;;
19747;SDS011;10032;51.386;12.516;2023-11-21T13:32:59;5.40;;;3.10;;
19747;SDS011;10032;51.386;12.516;2023-11-21T13:35:29;4.70;;;3.30;;
19747;SDS011;10032;51.386;12.516;2023-11-21T13:38:02;4.83;;;3.50;;
19747;SDS011;10032;51.386;12.516;2023-11-21T13:40:35;3.27;;;2.50;;
19747;SDS011;10032;51.386;12.516;2023-11-21T13:43:11;5.67;;;3.53;;
19747;SDS011;10032;51.386;12.516;2023-11-21T13:45:39;3.83;;;2.60;;
19747;SDS011;10032;51.386;12.516;2023-11-21T13:48:05;3.77;;;3.10;;
19747;SDS011;10032;51.386;12.516;2023-11-21T13:50:35;5.13;;;2.80;;
19747;SDS011;10032;51.386;12.516;2023-11-21T13:53:02;4.53;;;3.33;;
19747;SDS011;10032;51.386;12.516;2023-11-21T13:55:35;3.53;;;3.13;;
19747;SDS011;10032;51.386;12.516;2023-11-21T13:58:02;3.57;;;2.83;;
19747;SDS011;10032;51.386;12.516;2023-11-21T14:00:34;2.40;;;2.20;;
19747;SDS011;10032;51.386;12.516;2023-11-21T14:03:12;3.13;;;2.37;;
19747;SDS011;10032;51.386;12.516;2023-11-21T14:05:47;3.00;;;2.57;;
19747;SDS011;10032;51.386;12.516;2023-11-21T14:08:19;4.33;;;2.63;;
19747;SDS011;10032;51.386;12.516;2023-11-21T14:10:46;3.33;;;2.57;;
19747;SDS011;10032;51.386;12.516;2023-11-21T14:13:18;2.10;;;1.90;;
19747;SDS011;10032;51.386;12.516;2023-11-21T14:15:44;3.50;;;3.07;;
19747;SDS011;10032;51.386;12.516;2023-11-21T14:18:11;3.00;;;2.30;;
19747;SDS011;10032;51.386;12.516;2023-11-21T14:20:42;2.40;;;2.20;;
19747;SDS011;10032;51.386;12.516;2023-11-21T14:23:07;3.47;;;2.47;;
19747;SDS011;10032;51.386;12.516;2023-11-21T14:25:36;2.47;;;1.93;;
19747;SDS011;10032;51.386;12.516;2023-11-21T14:28:04;2.40;;;2.20;;
19747;SDS011;10032;51.386;12.516;2023-11-21T14:30:31;5.60;;;2.60;;
19747;SDS011;10032;51.386;12.516;2023-11-21T14:32:58;2.57;;;1.90;;
19747;SDS011;10032;51.386;12.516;2023-11-21T14:35:24;2.47;;;2.23;;
19747;SDS011;10032;51.386;12.516;2023-11-21T14:37:49;1.87;;;1.50;;
19747;SDS011;10032;51.386;12.516;2023-11-21T14:40:15;2.80;;;1.90;;
19747;SDS011;10032;51.386;12.516;2023-11-21T14:42:44;1.73;;;1.60;;
19747;SDS011;10032;51.386;12.516;2023-11-21T14:45:12;2.67;;;1.93;;
19747;SDS011;10032;51.386;12.516;2023-11-21T14:47:41;1.60;;;1.50;;
19747;SDS011;10032;51.386;12.516;2023-11-21T14:50:13;2.23;;;1.30;;
19747;SDS011;10032;51.386;12.516;2023-11-21T14:52:57;2.47;;;1.73;;
19747;SDS011;10032;51.386;12.516;2023-11-21T14:55:24;1.40;;;1.30;;